Terminal Aerodrome Forecast
Issued by NWS

Home | Current Version | Previous Version | Text Only | Print | Product List | Glossary On
Versions: 1 2 3 4 5 6 7 8 9 10 11 12
000
FTUS45 KLKN 042325
TAFEKO
TAF
KEKO 042325Z 0500/0524 13008G18KT P6SM FEW120 BKN200
     FM050200 VRB06KT P6SM BKN150
     FM050600 08003KT P6SM SCT150
     FM051700 15017G27KT P6SM BKN150=

USA.gov is the U.S. government's official web portal to all federal, state and local government web resources and services.